sensor_id;sensor_type;location;lat;lon;timestamp;pressure;altitude;pressure_sealevel;temperature;humidity
60099;BME280;62818;49.394;8.686;2022-08-18T00:00:50;99961.81;;;23.59;61.45
60099;BME280;62818;49.394;8.686;2022-08-18T00:02:00;99964.47;;;23.29;63.43
60099;BME280;62818;49.394;8.686;2022-08-18T00:03:06;99960.34;;;23.07;64.73
60099;BME280;62818;49.394;8.686;2022-08-18T00:04:08;99969.81;;;22.99;64.89
60099;BME280;62818;49.394;8.686;2022-08-18T00:05:11;99959.06;;;23.19;63.35
60099;BME280;62818;49.394;8.686;2022-08-18T00:06:12;99963.97;;;23.63;61.15
60099;BME280;62818;49.394;8.686;2022-08-18T00:07:23;99957.41;;;23.08;64.58
60099;BME280;62818;49.394;8.686;2022-08-18T00:08:25;99958.94;;;22.79;65.91
60099;BME280;62818;49.394;8.686;2022-08-18T00:09:28;99958.97;;;22.89;65.24
60099;BME280;62818;49.394;8.686;2022-08-18T00:10:28;99964.00;;;23.52;62.30
60099;BME280;62818;49.394;8.686;2022-08-18T00:11:32;99965.06;;;23.36;63.59
60099;BME280;62818;49.394;8.686;2022-08-18T00:12:39;99965.19;;;22.90;65.31
60099;BME280;62818;49.394;8.686;2022-08-18T00:13:42;99972.53;;;22.99;64.89
60099;BME280;62818;49.394;8.686;2022-08-18T00:14:47;99975.84;;;23.26;63.64
60099;BME280;62818;49.394;8.686;2022-08-18T00:15:49;99976.16;;;23.45;62.52
60099;BME280;62818;49.394;8.686;2022-08-18T00:16:53;99984.56;;;23.79;61.21
60099;BME280;62818;49.394;8.686;2022-08-18T00:17:53;99981.03;;;23.83;61.06
60099;BME280;62818;49.394;8.686;2022-08-18T00:18:58;99987.25;;;23.69;62.02
60099;BME280;62818;49.394;8.686;2022-08-18T00:19:59;99975.88;;;23.36;63.29
60099;BME280;62818;49.394;8.686;2022-08-18T00:21:04;99975.84;;;23.26;63.60
60099;BME280;62818;49.394;8.686;2022-08-18T00:22:07;99976.38;;;23.23;63.55
60099;BME280;62818;49.394;8.686;2022-08-18T00:23:09;99978.25;;;23.23;63.04
60099;BME280;62818;49.394;8.686;2022-08-18T00:24:09;99972.03;;;23.17;63.14
60099;BME280;62818;49.394;8.686;2022-08-18T00:25:14;99977.69;;;23.11;63.65
60099;BME280;62818;49.394;8.686;2022-08-18T00:26:20;99970.81;;;22.73;65.11
60099;BME280;62818;49.394;8.686;2022-08-18T00:27:28;99971.03;;;22.61;65.12
60099;BME280;62818;49.394;8.686;2022-08-18T00:28:34;99972.47;;;22.89;64.21
60099;BME280;62818;49.394;8.686;2022-08-18T00:29:37;99965.81;;;22.50;65.46
60099;BME280;62818;49.394;8.686;2022-08-18T00:30:42;99964.44;;;23.04;63.52
60099;BME280;62818;49.394;8.686;2022-08-18T00:31:47;99967.06;;;22.84;63.73
60099;BME280;62818;49.394;8.686;2022-08-18T00:32:55;99961.13;;;22.87;63.64
60099;BME280;62818;49.394;8.686;2022-08-18T00:33:57;99961.94;;;22.88;63.79
60099;BME280;62818;49.394;8.686;2022-08-18T00:36:10;99965.41;;;22.73;63.93
60099;BME280;62818;49.394;8.686;2022-08-18T00:37:13;99957.84;;;22.75;63.87
60099;BME280;62818;49.394;8.686;2022-08-18T00:38:14;99969.75;;;22.79;63.88
60099;BME280;62818;49.394;8.686;2022-08-18T00:39:15;99963.84;;;23.02;63.12
60099;BME280;62818;49.394;8.686;2022-08-18T00:40:22;99963.38;;;23.15;62.48
60099;BME280;62818;49.394;8.686;2022-08-18T00:41:27;99961.72;;;23.09;62.86
60099;BME280;62818;49.394;8.686;2022-08-18T00:42:28;99957.44;;;23.28;61.91
60099;BME280;62818;49.394;8.686;2022-08-18T00:44:41;99963.19;;;22.65;64.37
60099;BME280;62818;49.394;8.686;2022-08-18T00:45:45;99963.66;;;22.52;64.64
60099;BME280;62818;49.394;8.686;2022-08-18T00:46:48;99960.72;;;22.53;64.72
60099;BME280;62818;49.394;8.686;2022-08-18T00:47:52;99962.09;;;22.61;64.25
60099;BME280;62818;49.394;8.686;2022-08-18T00:48:55;99970.81;;;22.73;64.16
60099;BME280;62818;49.394;8.686;2022-08-18T00:49:59;99967.03;;;22.69;64.08
60099;BME280;62818;49.394;8.686;2022-08-18T00:51:04;99968.09;;;22.78;63.61
60099;BME280;62818;49.394;8.686;2022-08-18T00:52:13;99976.84;;;22.95;62.90
60099;BME280;62818;49.394;8.686;2022-08-18T00:54:44;99974.66;;;22.92;62.68
60099;BME280;62818;49.394;8.686;2022-08-18T00:55:54;99970.09;;;23.03;62.32
60099;BME280;62818;49.394;8.686;2022-08-18T00:57:02;99975.25;;;23.09;62.10
60099;BME280;62818;49.394;8.686;2022-08-18T00:58:11;99981.00;;;22.56;63.95
60099;BME280;62818;49.394;8.686;2022-08-18T00:59:31;99980.38;;;22.44;64.54
60099;BME280;62818;49.394;8.686;2022-08-18T01:00:41;99988.72;;;22.37;64.79
60099;BME280;62818;49.394;8.686;2022-08-18T01:01:45;99982.00;;;22.50;64.10
60099;BME280;62818;49.394;8.686;2022-08-18T01:02:53;99994.97;;;22.48;64.24
60099;BME280;62818;49.394;8.686;2022-08-18T01:04:10;99995.16;;;22.31;64.45
60099;BME280;62818;49.394;8.686;2022-08-18T01:05:55;99993.28;;;22.37;63.92
60099;BME280;62818;49.394;8.686;2022-08-18T01:07:13;99986.22;;;22.72;63.01
60099;BME280;62818;49.394;8.686;2022-08-18T01:08:20;99991.09;;;22.29;64.22
60099;BME280;62818;49.394;8.686;2022-08-18T01:09:24;99986.81;;;22.38;64.07
60099;BME280;62818;49.394;8.686;2022-08-18T01:10:27;99987.06;;;21.94;65.35
60099;BME280;62818;49.394;8.686;2022-08-18T01:11:30;99996.75;;;21.85;65.66
60099;BME280;62818;49.394;8.686;2022-08-18T01:12:32;100002.16;;;21.90;65.87
60099;BME280;62818;49.394;8.686;2022-08-18T01:13:35;100000.25;;;22.28;64.50
60099;BME280;62818;49.394;8.686;2022-08-18T01:14:41;100000.69;;;22.09;65.39
60099;BME280;62818;49.394;8.686;2022-08-18T01:15:42;99995.81;;;22.06;65.28
60099;BME280;62818;49.394;8.686;2022-08-18T01:16:47;99995.53;;;22.50;63.89
60099;BME280;62818;49.394;8.686;2022-08-18T01:18:10;100004.06;;;22.32;64.43
60099;BME280;62818;49.394;8.686;2022-08-18T01:19:31;99996.00;;;22.37;64.36
60099;BME280;62818;49.394;8.686;2022-08-18T01:21:03;99997.91;;;22.93;62.42
60099;BME280;62818;49.394;8.686;2022-08-18T01:23:51;99993.16;;;22.17;65.48
60099;BME280;62818;49.394;8.686;2022-08-18T01:24:56;99982.25;;;22.38;64.53
60099;BME280;62818;49.394;8.686;2022-08-18T01:26:20;99988.31;;;22.19;65.56
60099;BME280;62818;49.394;8.686;2022-08-18T01:27:28;99984.50;;;22.14;65.52
60099;BME280;62818;49.394;8.686;2022-08-18T01:28:37;99993.03;;;21.96;66.26
60099;BME280;62818;49.394;8.686;2022-08-18T01:29:47;99977.88;;;21.90;66.54
60099;BME280;62818;49.394;8.686;2022-08-18T01:30:57;99987.34;;;21.93;66.69
60099;BME280;62818;49.394;8.686;2022-08-18T01:32:03;99979.19;;;22.25;65.30
60099;BME280;62818;49.394;8.686;2022-08-18T01:33:04;99979.81;;;22.42;64.73
60099;BME280;62818;49.394;8.686;2022-08-18T01:34:10;99971.56;;;22.11;65.74
60099;BME280;62818;49.394;8.686;2022-08-18T01:35:18;99968.34;;;22.20;65.52
60099;BME280;62818;49.394;8.686;2022-08-18T01:36:24;99970.63;;;22.43;64.85
60099;BME280;62818;49.394;8.686;2022-08-18T01:37:28;99970.19;;;22.56;64.30
60099;BME280;62818;49.394;8.686;2022-08-18T01:38:31;99974.41;;;22.42;64.57
60099;BME280;62818;49.394;8.686;2022-08-18T01:39:32;99986.84;;;22.43;64.93
60099;BME280;62818;49.394;8.686;2022-08-18T01:40:37;99974.75;;;22.55;64.39
60099;BME280;62818;49.394;8.686;2022-08-18T01:41:38;99986.19;;;22.26;65.35
60099;BME280;62818;49.394;8.686;2022-08-18T01:42:43;99974.81;;;22.65;63.91
60099;BME280;62818;49.394;8.686;2022-08-18T01:43:49;99975.00;;;22.54;64.26
60099;BME280;62818;49.394;8.686;2022-08-18T01:44:52;99971.84;;;22.67;64.05
60099;BME280;62818;49.394;8.686;2022-08-18T01:45:56;99979.81;;;22.99;62.64
60099;BME280;62818;49.394;8.686;2022-08-18T01:47:01;99971.97;;;22.97;62.76
60099;BME280;62818;49.394;8.686;2022-08-18T01:48:04;99973.72;;;22.61;63.93
60099;BME280;62818;49.394;8.686;2022-08-18T01:49:09;99977.81;;;22.64;64.09
60099;BME280;62818;49.394;8.686;2022-08-18T01:50:11;99980.91;;;22.46;64.43
60099;BME280;62818;49.394;8.686;2022-08-18T01:51:16;99975.28;;;22.05;65.85
60099;BME280;62818;49.394;8.686;2022-08-18T01:52:23;99965.53;;;21.99;66.51
60099;BME280;62818;49.394;8.686;2022-08-18T01:53:26;99963.81;;;21.88;66.64
60099;BME280;62818;49.394;8.686;2022-08-18T01:54:28;99964.47;;;21.69;67.61
60099;BME280;62818;49.394;8.686;2022-08-18T01:55:29;99963.13;;;21.71;67.40
60099;BME280;62818;49.394;8.686;2022-08-18T01:56:32;99960.06;;;21.89;66.75
60099;BME280;62818;49.394;8.686;2022-08-18T01:57:36;99964.00;;;22.19;65.79
60099;BME280;62818;49.394;8.686;2022-08-18T01:58:43;99957.75;;;22.08;66.01
60099;BME280;62818;49.394;8.686;2022-08-18T01:59:51;99955.09;;;22.13;66.10
60099;BME280;62818;49.394;8.686;2022-08-18T02:00:54;99955.53;;;22.00;66.59
60099;BME280;62818;49.394;8.686;2022-08-18T02:02:00;99958.75;;;21.92;66.93
60099;BME280;62818;49.394;8.686;2022-08-18T02:03:06;99955.91;;;22.19;66.16
60099;BME280;62818;49.394;8.686;2022-08-18T02:04:13;99955.22;;;21.91;66.91
60099;BME280;62818;49.394;8.686;2022-08-18T02:05:22;99954.13;;;21.92;66.61
60099;BME280;62818;49.394;8.686;2022-08-18T02:06:38;99948.06;;;22.12;66.23
60099;BME280;62818;49.394;8.686;2022-08-18T02:07:39;99956.91;;;22.02;66.19
60099;BME280;62818;49.394;8.686;2022-08-18T02:08:48;99948.13;;;22.22;65.73
60099;BME280;62818;49.394;8.686;2022-08-18T02:09:48;99949.38;;;21.73;67.61
60099;BME280;62818;49.394;8.686;2022-08-18T02:10:49;99947.13;;;21.96;67.05
60099;BME280;62818;49.394;8.686;2022-08-18T02:11:53;99953.91;;;21.99;66.61
60099;BME280;62818;49.394;8.686;2022-08-18T02:12:57;99959.97;;;22.16;65.97
60099;BME280;62818;49.394;8.686;2022-08-18T02:14:02;99948.88;;;21.76;67.48
60099;BME280;62818;49.394;8.686;2022-08-18T02:15:04;99952.63;;;21.75;67.66
60099;BME280;62818;49.394;8.686;2022-08-18T02:16:07;99949.03;;;21.96;66.81
60099;BME280;62818;49.394;8.686;2022-08-18T02:17:12;99947.34;;;21.53;68.29
60099;BME280;62818;49.394;8.686;2022-08-18T02:18:24;99951.03;;;21.79;67.48
60099;BME280;62818;49.394;8.686;2022-08-18T02:19:36;99946.72;;;22.14;66.03
60099;BME280;62818;49.394;8.686;2022-08-18T02:20:50;99949.69;;;21.76;67.39
60099;BME280;62818;49.394;8.686;2022-08-18T02:21:51;99942.22;;;21.88;67.00
60099;BME280;62818;49.394;8.686;2022-08-18T02:22:54;99945.75;;;21.57;67.86
60099;BME280;62818;49.394;8.686;2022-08-18T02:23:55;99945.75;;;21.57;68.01
60099;BME280;62818;49.394;8.686;2022-08-18T02:25:03;99941.56;;;22.08;66.03
60099;BME280;62818;49.394;8.686;2022-08-18T02:26:09;99937.66;;;22.36;65.44
60099;BME280;62818;49.394;8.686;2022-08-18T02:27:13;99938.66;;;22.20;65.81
60099;BME280;62818;49.394;8.686;2022-08-18T02:28:15;99947.00;;;22.13;65.56
60099;BME280;62818;49.394;8.686;2022-08-18T02:29:18;99940.63;;;21.87;66.52
60099;BME280;62818;49.394;8.686;2022-08-18T02:30:19;99945.47;;;21.54;67.87
60099;BME280;62818;49.394;8.686;2022-08-18T02:31:25;99933.44;;;21.71;67.45
60099;BME280;62818;49.394;8.686;2022-08-18T02:32:27;99941.31;;;22.09;66.11
60099;BME280;62818;49.394;8.686;2022-08-18T02:33:33;99945.84;;;21.67;67.23
60099;BME280;62818;49.394;8.686;2022-08-18T02:34:36;99933.34;;;21.56;67.90
60099;BME280;62818;49.394;8.686;2022-08-18T02:35:37;99934.16;;;21.57;67.87
60099;BME280;62818;49.394;8.686;2022-08-18T02:36:43;99936.66;;;21.63;67.63
60099;BME280;62818;49.394;8.686;2022-08-18T02:37:46;99935.81;;;21.31;68.74
60099;BME280;62818;49.394;8.686;2022-08-18T02:38:47;99940.50;;;21.77;67.28
60099;BME280;62818;49.394;8.686;2022-08-18T02:39:48;99941.38;;;21.51;68.21
60099;BME280;62818;49.394;8.686;2022-08-18T02:41:00;99932.41;;;21.77;67.17
60099;BME280;62818;49.394;8.686;2022-08-18T02:42:06;99931.72;;;22.34;65.03
60099;BME280;62818;49.394;8.686;2022-08-18T02:43:10;99927.81;;;22.14;65.48
60099;BME280;62818;49.394;8.686;2022-08-18T02:44:13;99931.63;;;22.19;65.49
60099;BME280;62818;49.394;8.686;2022-08-18T02:45:19;99927.00;;;22.14;65.71
60099;BME280;62818;49.394;8.686;2022-08-18T02:46:25;99930.59;;;22.25;64.82
60099;BME280;62818;49.394;8.686;2022-08-18T02:47:26;99933.13;;;21.99;66.33
60099;BME280;62818;49.394;8.686;2022-08-18T02:48:32;99930.81;;;21.81;66.91
60099;BME280;62818;49.394;8.686;2022-08-18T02:49:35;99940.41;;;22.46;64.14
60099;BME280;62818;49.394;8.686;2022-08-18T02:50:38;99924.44;;;21.87;65.93
60099;BME280;62818;49.394;8.686;2022-08-18T02:51:49;99934.50;;;21.65;67.15
60099;BME280;62818;49.394;8.686;2022-08-18T02:52:52;99927.91;;;21.83;66.61
60099;BME280;62818;49.394;8.686;2022-08-18T02:53:56;99925.84;;;21.63;66.58
60099;BME280;62818;49.394;8.686;2022-08-18T02:55:00;99926.19;;;21.72;66.44
60099;BME280;62818;49.394;8.686;2022-08-18T02:56:16;99911.00;;;21.61;66.84
60099;BME280;62818;49.394;8.686;2022-08-18T02:57:26;99915.06;;;22.00;65.68
60099;BME280;62818;49.394;8.686;2022-08-18T02:58:27;99906.88;;;21.90;65.59
60099;BME280;62818;49.394;8.686;2022-08-18T02:59:33;99905.78;;;22.33;64.76
60099;BME280;62818;49.394;8.686;2022-08-18T03:00:33;99906.50;;;22.13;64.53
60099;BME280;62818;49.394;8.686;2022-08-18T03:01:42;99906.59;;;21.50;66.66
60099;BME280;62818;49.394;8.686;2022-08-18T03:02:51;99906.50;;;21.39;66.84
60099;BME280;62818;49.394;8.686;2022-08-18T03:03:55;99901.34;;;21.70;66.16
60099;BME280;62818;49.394;8.686;2022-08-18T03:04:59;99907.06;;;21.78;65.72
60099;BME280;62818;49.394;8.686;2022-08-18T03:05:59;99901.94;;;22.24;64.51
60099;BME280;62818;49.394;8.686;2022-08-18T03:07:04;99900.25;;;22.07;64.84
60099;BME280;62818;49.394;8.686;2022-08-18T03:08:09;99899.19;;;21.72;65.66
60099;BME280;62818;49.394;8.686;2022-08-18T03:09:12;99895.41;;;21.73;65.09
60099;BME280;62818;49.394;8.686;2022-08-18T03:10:14;99894.91;;;21.76;65.38
60099;BME280;62818;49.394;8.686;2022-08-18T03:11:16;99898.19;;;22.25;63.59
60099;BME280;62818;49.394;8.686;2022-08-18T03:12:19;99887.25;;;21.99;64.62
60099;BME280;62818;49.394;8.686;2022-08-18T03:13:22;99897.50;;;21.97;64.51
60099;BME280;62818;49.394;8.686;2022-08-18T03:14:26;99893.44;;;21.95;64.47
60099;BME280;62818;49.394;8.686;2022-08-18T03:15:27;99892.16;;;22.07;64.41
60099;BME280;62818;49.394;8.686;2022-08-18T03:16:30;99895.94;;;22.63;62.56
60099;BME280;62818;49.394;8.686;2022-08-18T03:17:34;99891.91;;;22.71;62.29
60099;BME280;62818;49.394;8.686;2022-08-18T03:18:37;99902.31;;;22.47;62.35
60099;BME280;62818;49.394;8.686;2022-08-18T03:19:44;99893.91;;;22.34;63.13
60099;BME280;62818;49.394;8.686;2022-08-18T03:20:44;99893.31;;;22.22;63.89
60099;BME280;62818;49.394;8.686;2022-08-18T03:21:48;99897.84;;;22.73;62.26
60099;BME280;62818;49.394;8.686;2022-08-18T03:22:51;99893.34;;;23.09;60.90
60099;BME280;62818;49.394;8.686;2022-08-18T03:23:53;99896.00;;;22.94;61.09
60099;BME280;62818;49.394;8.686;2022-08-18T03:24:55;99892.75;;;22.92;61.15
60099;BME280;62818;49.394;8.686;2022-08-18T03:25:56;99896.81;;;22.84;61.49
60099;BME280;62818;49.394;8.686;2022-08-18T03:27:00;99899.72;;;22.67;61.86
60099;BME280;62818;49.394;8.686;2022-08-18T03:28:05;99902.63;;;22.51;62.72
60099;BME280;62818;49.394;8.686;2022-08-18T03:29:08;99909.63;;;22.52;62.87
60099;BME280;62818;49.394;8.686;2022-08-18T03:30:09;99909.00;;;22.25;64.12
60099;BME280;62818;49.394;8.686;2022-08-18T03:31:15;99908.06;;;22.04;64.84
60099;BME280;62818;49.394;8.686;2022-08-18T03:32:19;99909.34;;;21.96;65.28
60099;BME280;62818;49.394;8.686;2022-08-18T03:33:20;99905.78;;;22.33;64.24
60099;BME280;62818;49.394;8.686;2022-08-18T03:34:23;99904.59;;;22.08;65.33
60099;BME280;62818;49.394;8.686;2022-08-18T03:35:26;99904.06;;;22.11;65.33
60099;BME280;62818;49.394;8.686;2022-08-18T03:36:32;99902.25;;;22.27;64.64
60099;BME280;62818;49.394;8.686;2022-08-18T03:37:39;99906.94;;;22.47;64.05
60099;BME280;62818;49.394;8.686;2022-08-18T03:38:45;99897.69;;;21.86;66.77
60099;BME280;62818;49.394;8.686;2022-08-18T03:39:51;99897.06;;;21.74;67.51
60099;BME280;62818;49.394;8.686;2022-08-18T03:40:54;99893.50;;;21.68;68.07
60099;BME280;62818;49.394;8.686;2022-08-18T03:42:00;99889.78;;;21.74;67.96
60099;BME280;62818;49.394;8.686;2022-08-18T03:43:05;99886.94;;;21.54;69.11
60099;BME280;62818;49.394;8.686;2022-08-18T03:44:15;99895.41;;;22.09;66.42
60099;BME280;62818;49.394;8.686;2022-08-18T03:45:16;99887.09;;;22.16;66.14
60099;BME280;62818;49.394;8.686;2022-08-18T03:46:22;99896.47;;;21.67;68.92
60099;BME280;62818;49.394;8.686;2022-08-18T03:47:26;99893.03;;;21.81;68.02
60099;BME280;62818;49.394;8.686;2022-08-18T03:48:30;99889.59;;;21.49;70.49
60099;BME280;62818;49.394;8.686;2022-08-18T03:49:35;99895.16;;;20.84;74.64
60099;BME280;62818;49.394;8.686;2022-08-18T03:50:36;99892.31;;;20.96;73.90
60099;BME280;62818;49.394;8.686;2022-08-18T03:51:38;99893.03;;;21.81;68.91
60099;BME280;62818;49.394;8.686;2022-08-18T03:52:50;99896.56;;;22.24;67.34
60099;BME280;62818;49.394;8.686;2022-08-18T03:53:54;99896.88;;;22.37;67.01
60099;BME280;62818;49.394;8.686;2022-08-18T03:55:01;99901.72;;;22.30;67.70
60099;BME280;62818;49.394;8.686;2022-08-18T03:56:10;99891.47;;;22.27;67.39
60099;BME280;62818;49.394;8.686;2022-08-18T03:57:15;99898.09;;;22.61;65.85
60099;BME280;62818;49.394;8.686;2022-08-18T03:58:15;99894.59;;;22.66;66.56
60099;BME280;62818;49.394;8.686;2022-08-18T03:59:21;99890.03;;;22.14;68.46
60099;BME280;62818;49.394;8.686;2022-08-18T04:00:26;99900.47;;;22.53;66.63
60099;BME280;62818;49.394;8.686;2022-08-18T04:01:33;99906.38;;;22.45;66.97
60099;BME280;62818;49.394;8.686;2022-08-18T04:02:41;99893.19;;;22.01;69.68
60099;BME280;62818;49.394;8.686;2022-08-18T04:03:43;99906.94;;;22.47;67.13
60099;BME280;62818;49.394;8.686;2022-08-18T04:04:47;99908.59;;;22.58;67.71
60099;BME280;62818;49.394;8.686;2022-08-18T04:05:48;99910.25;;;22.07;69.93
60099;BME280;62818;49.394;8.686;2022-08-18T04:06:57;99899.22;;;22.19;69.38
60099;BME280;62818;49.394;8.686;2022-08-18T04:08:06;99899.53;;;22.22;69.32
60099;BME280;62818;49.394;8.686;2022-08-18T04:09:11;99897.72;;;22.38;68.21
60099;BME280;62818;49.394;8.686;2022-08-18T04:10:16;99898.75;;;22.32;68.61
60099;BME280;62818;49.394;8.686;2022-08-18T04:11:17;99897.28;;;22.66;67.25
60099;BME280;62818;49.394;8.686;2022-08-18T04:12:17;99903.94;;;22.38;68.12
60099;BME280;62818;49.394;8.686;2022-08-18T04:13:23;99900.81;;;22.66;67.22
60099;BME280;62818;49.394;8.686;2022-08-18T04:14:25;99893.81;;;22.13;69.64
60099;BME280;62818;49.394;8.686;2022-08-18T04:15:31;99893.91;;;22.39;68.43
60099;BME280;62818;49.394;8.686;2022-08-18T04:16:35;99895.06;;;22.53;68.01
60099;BME280;62818;49.394;8.686;2022-08-18T04:17:37;99899.38;;;22.59;67.46
60099;BME280;62818;49.394;8.686;2022-08-18T04:18:38;99898.91;;;22.72;66.80
60099;BME280;62818;49.394;8.686;2022-08-18T04:19:40;99901.59;;;22.67;67.16
60099;BME280;62818;49.394;8.686;2022-08-18T04:20:46;99897.59;;;22.74;66.78
60099;BME280;62818;49.394;8.686;2022-08-18T04:21:55;99904.59;;;22.08;69.91
60099;BME280;62818;49.394;8.686;2022-08-18T04:22:56;99902.44;;;21.74;71.65
60099;BME280;62818;49.394;8.686;2022-08-18T04:23:59;99892.88;;;21.56;72.89
60099;BME280;62818;49.394;8.686;2022-08-18T04:25:05;99890.78;;;21.68;71.76
60099;BME280;62818;49.394;8.686;2022-08-18T04:26:12;99899.56;;;22.32;68.57
60099;BME280;62818;49.394;8.686;2022-08-18T04:27:21;99897.03;;;22.62;67.44
60099;BME280;62818;49.394;8.686;2022-08-18T04:28:24;99897.84;;;22.68;67.29
60099;BME280;62818;49.394;8.686;2022-08-18T04:29:28;99895.72;;;22.80;66.83
60099;BME280;62818;49.394;8.686;2022-08-18T04:30:31;99903.25;;;22.78;67.14
60099;BME280;62818;49.394;8.686;2022-08-18T04:31:36;99898.66;;;22.11;70.43
60099;BME280;62818;49.394;8.686;2022-08-18T04:32:37;99901.91;;;22.19;69.52
60099;BME280;62818;49.394;8.686;2022-08-18T04:33:42;99900.94;;;22.35;68.96
60099;BME280;62818;49.394;8.686;2022-08-18T04:34:45;99912.09;;;22.58;68.13
60099;BME280;62818;49.394;8.686;2022-08-18T04:35:46;99902.47;;;22.16;69.67
60099;BME280;62818;49.394;8.686;2022-08-18T04:36:50;99904.09;;;22.22;69.55
60099;BME280;62818;49.394;8.686;2022-08-18T04:37:56;99908.59;;;22.58;67.78
60099;BME280;62818;49.394;8.686;2022-08-18T04:39:04;99905.75;;;22.23;69.61
60099;BME280;62818;49.394;8.686;2022-08-18T04:40:07;99903.13;;;22.48;68.25
60099;BME280;62818;49.394;8.686;2022-08-18T04:41:10;99911.88;;;22.60;67.85
60099;BME280;62818;49.394;8.686;2022-08-18T04:42:15;99916.78;;;22.73;67.22
60099;BME280;62818;49.394;8.686;2022-08-18T04:43:18;99914.63;;;22.85;66.67
60099;BME280;62818;49.394;8.686;2022-08-18T04:44:19;99908.03;;;22.51;68.37
60099;BME280;62818;49.394;8.686;2022-08-18T04:45:20;99910.69;;;22.46;68.60
60099;BME280;62818;49.394;8.686;2022-08-18T04:46:25;99917.72;;;22.47;68.60
60099;BME280;62818;49.394;8.686;2022-08-18T04:47:26;99920.19;;;22.58;68.06
60099;BME280;62818;49.394;8.686;2022-08-18T04:48:32;99917.03;;;22.66;67.51
60099;BME280;62818;49.394;8.686;2022-08-18T04:49:42;99917.19;;;22.50;68.32
60099;BME280;62818;49.394;8.686;2022-08-18T04:50:47;99914.56;;;22.65;67.88
60099;BME280;62818;49.394;8.686;2022-08-18T04:51:49;99916.47;;;22.69;67.53
60099;BME280;62818;49.394;8.686;2022-08-18T04:53:09;99918.38;;;22.69;67.23
60099;BME280;62818;49.394;8.686;2022-08-18T04:54:28;99917.31;;;22.75;67.13
60099;BME280;62818;49.394;8.686;2022-08-18T04:55:29;99918.28;;;22.54;67.97
60099;BME280;62818;49.394;8.686;2022-08-18T04:56:38;99921.63;;;22.76;67.08
60099;BME280;62818;49.394;8.686;2022-08-18T04:57:41;99923.28;;;22.82;66.89
60099;BME280;62818;49.394;8.686;2022-08-18T04:58:44;99930.97;;;22.01;70.71
60099;BME280;62818;49.394;8.686;2022-08-18T04:59:53;99930.69;;;22.50;68.55
60099;BME280;62818;49.394;8.686;2022-08-18T05:01:02;99931.38;;;22.77;67.19
60099;BME280;62818;49.394;8.686;2022-08-18T05:02:03;99934.09;;;22.87;66.73
60099;BME280;62818;49.394;8.686;2022-08-18T05:03:08;99932.50;;;22.91;66.44
60099;BME280;62818;49.394;8.686;2022-08-18T05:04:09;99932.22;;;22.93;66.54
60099;BME280;62818;49.394;8.686;2022-08-18T05:05:13;99932.47;;;22.86;67.03
60099;BME280;62818;49.394;8.686;2022-08-18T05:06:18;99934.09;;;21.83;71.58
60099;BME280;62818;49.394;8.686;2022-08-18T05:07:23;99941.28;;;22.04;71.01
60099;BME280;62818;49.394;8.686;2022-08-18T05:08:24;99934.56;;;22.12;70.63
60099;BME280;62818;49.394;8.686;2022-08-18T05:09:28;99944.75;;;22.47;69.11
60099;BME280;62818;49.394;8.686;2022-08-18T05:10:30;99948.00;;;22.49;68.84
60099;BME280;62818;49.394;8.686;2022-08-18T05:11:32;99940.19;;;22.57;68.57
60099;BME280;62818;49.394;8.686;2022-08-18T05:12:33;99946.94;;;22.55;68.56
60099;BME280;62818;49.394;8.686;2022-08-18T05:13:36;99945.31;;;22.59;68.32
60099;BME280;62818;49.394;8.686;2022-08-18T05:14:40;99937.28;;;22.64;68.13
60099;BME280;62818;49.394;8.686;2022-08-18T05:15:52;99945.78;;;22.41;69.55
60099;BME280;62818;49.394;8.686;2022-08-18T05:16:58;99943.22;;;22.66;68.14
60099;BME280;62818;49.394;8.686;2022-08-18T05:18:04;99939.47;;;22.77;67.48
60099;BME280;62818;49.394;8.686;2022-08-18T05:19:08;99945.41;;;22.74;67.64
60099;BME280;62818;49.394;8.686;2022-08-18T05:20:10;99949.47;;;22.76;67.44
60099;BME280;62818;49.394;8.686;2022-08-18T05:21:11;99946.41;;;22.58;68.63
60099;BME280;62818;49.394;8.686;2022-08-18T05:22:15;99949.34;;;22.56;68.69
60099;BME280;62818;49.394;8.686;2022-08-18T05:23:20;99953.22;;;22.65;68.15
60099;BME280;62818;49.394;8.686;2022-08-18T05:24:24;99943.72;;;22.58;68.39
60099;BME280;62818;49.394;8.686;2022-08-18T05:25:28;99944.50;;;22.53;68.83
60099;BME280;62818;49.394;8.686;2022-08-18T05:26:33;99943.97;;;22.04;71.11
60099;BME280;62818;49.394;8.686;2022-08-18T05:27:36;99944.44;;;22.43;69.23
60099;BME280;62818;49.394;8.686;2022-08-18T05:28:38;99942.53;;;22.39;69.77
60099;BME280;62818;49.394;8.686;2022-08-18T05:29:44;99946.28;;;22.33;70.20
60099;BME280;62818;49.394;8.686;2022-08-18T05:30:47;99941.19;;;22.41;69.77
60099;BME280;62818;49.394;8.686;2022-08-18T05:31:52;99942.31;;;22.50;69.27
60099;BME280;62818;49.394;8.686;2022-08-18T05:32:56;99944.69;;;22.37;69.87
60099;BME280;62818;49.394;8.686;2022-08-18T05:34:01;99937.91;;;22.34;70.05
60099;BME280;62818;49.394;8.686;2022-08-18T05:35:06;99938.63;;;22.14;70.80
60099;BME280;62818;49.394;8.686;2022-08-18T05:39:25;99937.16;;;22.44;69.71
60099;BME280;62818;49.394;8.686;2022-08-18T05:40:29;99937.72;;;21.99;71.77
60099;BME280;62818;49.394;8.686;2022-08-18T05:41:37;99944.44;;;21.96;72.16
60099;BME280;62818;49.394;8.686;2022-08-18T05:42:47;99935.56;;;21.64;73.76
60099;BME280;62818;49.394;8.686;2022-08-18T05:43:56;99935.56;;;21.96;72.31
60099;BME280;62818;49.394;8.686;2022-08-18T05:45:02;99944.25;;;22.08;71.77
60099;BME280;62818;49.394;8.686;2022-08-18T05:46:11;99937.44;;;22.42;69.97
60099;BME280;62818;49.394;8.686;2022-08-18T05:48:27;99939.69;;;22.60;69.12
60099;BME280;62818;49.394;8.686;2022-08-18T05:49:28;99936.72;;;22.62;69.28
60099;BME280;62818;49.394;8.686;2022-08-18T05:50:30;99941.63;;;22.18;71.20
60099;BME280;62818;49.394;8.686;2022-08-18T05:51:41;99939.97;;;22.64;68.77
60099;BME280;62818;49.394;8.686;2022-08-18T05:52:55;99934.19;;;22.40;70.14
60099;BME280;62818;49.394;8.686;2022-08-18T05:54:03;99936.13;;;22.55;69.58
60099;BME280;62818;49.394;8.686;2022-08-18T05:55:36;99931.13;;;22.27;71.17